Terminal Aerodrome Forecast
Issued by NWS

Home | Current Version | Previous Version | Graphics & Text | Print | Product List | Glossary On
Versions: 1 2 3 4 5 6 7 8 9 10 11 12 13 14
728
FTUS43 KMPX 260520
TAFAXN
TAF
KAXN 260520Z 2606/2706 24005KT P6SM FEW060
     FM261700 20009KT P6SM SCT250=

USA.gov is the U.S. government's official web portal to all federal, state and local government web resources and services.